createdAt,value
2022-08-17T00:00:14.698Z,62.90
2022-08-17T00:02:57.000Z,62.90
2022-08-17T00:05:24.632Z,62.90
2022-08-17T00:07:51.444Z,63.00
2022-08-17T00:10:18.576Z,62.90
2022-08-17T00:12:45.457Z,62.90
2022-08-17T00:15:13.825Z,62.90
2022-08-17T00:17:43.940Z,63.10
2022-08-17T00:20:12.058Z,63.20
2022-08-17T00:22:38.787Z,63.20
2022-08-17T00:25:09.400Z,63.30
2022-08-17T00:27:36.926Z,63.40
2022-08-17T00:30:06.743Z,63.40
2022-08-17T00:33:23.257Z,63.40
2022-08-17T00:35:29.302Z,63.50
2022-08-17T00:37:56.026Z,63.40
2022-08-17T00:40:24.801Z,63.40
2022-08-17T00:42:52.728Z,63.50
2022-08-17T00:45:20.755Z,63.40
2022-08-17T00:47:47.932Z,63.50
2022-08-17T00:50:17.647Z,63.40
2022-08-17T00:52:57.254Z,63.30
2022-08-17T00:55:25.170Z,63.20
2022-08-17T00:57:56.921Z,63.10
2022-08-17T01:00:30.180Z,63.10
2022-08-17T01:03:01.989Z,63.00
2022-08-17T01:05:31.887Z,62.90
2022-08-17T01:08:00.509Z,62.90
2022-08-17T01:10:59.690Z,62.80
2022-08-17T01:13:23.504Z,62.70
2022-08-17T01:16:06.762Z,62.30
2022-08-17T01:18:34.171Z,62.40
2022-08-17T01:21:09.039Z,62.20
2022-08-17T01:23:36.304Z,62.10
2022-08-17T01:26:05.373Z,62.10
2022-08-17T01:28:54.289Z,62.00
2022-08-17T01:31:25.195Z,61.90
2022-08-17T01:33:52.310Z,61.60
2022-08-17T01:36:19.204Z,61.40
2022-08-17T01:38:45.910Z,61.30
2022-08-17T01:41:16.250Z,61.10
2022-08-17T01:44:00.277Z,61.00
2022-08-17T01:46:30.938Z,61.20
2022-08-17T01:48:58.416Z,61.40
2022-08-17T01:51:32.387Z,61.40
2022-08-17T01:54:03.320Z,61.90
2022-08-17T01:56:32.483Z,62.20
2022-08-17T01:58:59.456Z,62.60
2022-08-17T02:01:29.839Z,62.90
2022-08-17T02:04:00.943Z,63.30
2022-08-17T02:06:53.745Z,63.50
2022-08-17T02:09:25.512Z,63.90
2022-08-17T02:11:54.458Z,64.00
2022-08-17T02:14:21.815Z,64.20
2022-08-17T02:16:48.915Z,64.20
2022-08-17T02:19:16.864Z,64.30
2022-08-17T02:21:47.062Z,64.40
2022-08-17T02:25:00.888Z,64.20
2022-08-17T02:27:06.007Z,64.00
2022-08-17T02:29:32.889Z,63.70
2022-08-17T02:32:01.724Z,63.40
2022-08-17T02:34:28.786Z,63.20
2022-08-17T02:36:55.682Z,62.90
2022-08-17T02:39:22.400Z,62.50
2022-08-17T02:41:49.130Z,62.20
2022-08-17T02:44:35.408Z,62.10
2022-08-17T02:47:02.582Z,61.90
2022-08-17T02:49:29.271Z,61.80
2022-08-17T02:51:58.143Z,61.70
2022-08-17T02:54:40.375Z,61.50
2022-08-17T02:57:09.980Z,61.40
2022-08-17T02:59:37.818Z,61.30
2022-08-17T03:02:06.188Z,60.80
2022-08-17T03:04:35.175Z,61.10
2022-08-17T03:07:02.379Z,61.00
2022-08-17T03:09:29.111Z,61.40
2022-08-17T03:12:03.316Z,61.40
2022-08-17T03:14:32.115Z,61.50
2022-08-17T03:16:59.180Z,61.40
2022-08-17T03:19:25.919Z,61.30
2022-08-17T03:21:54.858Z,61.40
2022-08-17T03:24:22.108Z,61.50
2022-08-17T03:26:55.563Z,61.40
2022-08-17T03:29:22.253Z,61.60
2022-08-17T03:31:49.614Z,61.80
2022-08-17T03:34:17.198Z,61.80
2022-08-17T03:36:44.345Z,61.40
2022-08-17T03:39:11.029Z,61.20
2022-08-17T03:41:39.145Z,61.10
2022-08-17T03:44:05.947Z,60.80
2022-08-17T03:46:51.078Z,60.70
2022-08-17T03:49:36.556Z,60.80
2022-08-17T03:52:21.803Z,60.80
2022-08-17T03:55:07.278Z,60.80
2022-08-17T03:57:33.930Z,60.80
2022-08-17T04:00:00.656Z,60.80
2022-08-17T04:02:32.836Z,60.70
2022-08-17T04:05:00.106Z,60.60
2022-08-17T04:07:30.376Z,60.20
2022-08-17T04:09:58.059Z,60.30
2022-08-17T04:12:25.698Z,60.40
2022-08-17T04:14:54.722Z,60.70
2022-08-17T04:17:27.782Z,60.70
2022-08-17T04:19:55.364Z,61.10
2022-08-17T04:22:30.930Z,61.20
2022-08-17T04:25:24.758Z,61.20
2022-08-17T04:27:51.421Z,61.40
2022-08-17T04:30:18.139Z,61.40
2022-08-17T04:33:07.300Z,61.40
2022-08-17T04:35:47.676Z,61.60
2022-08-17T04:38:20.454Z,61.60
2022-08-17T04:41:06.735Z,61.70
2022-08-17T04:43:34.743Z,61.50
2022-08-17T04:46:08.539Z,62.10
2022-08-17T04:48:41.411Z,61.60
2022-08-17T04:51:18.158Z,62.00
2022-08-17T04:53:54.104Z,62.40
2022-08-17T04:56:23.216Z,62.70
2022-08-17T04:58:51.633Z,63.20
2022-08-17T05:01:23.306Z,63.50
2022-08-17T05:03:54.502Z,64.20
2022-08-17T05:06:21.787Z,64.40
2022-08-17T05:08:48.901Z,64.50
2022-08-17T05:11:15.785Z,64.50
2022-08-17T05:13:42.504Z,64.60
2022-08-17T05:16:09.392Z,64.70
2022-08-17T05:18:37.187Z,64.90
2022-08-17T05:21:04.202Z,65.10
2022-08-17T05:23:41.716Z,65.20
2022-08-17T05:26:18.610Z,65.40
2022-08-17T05:28:52.720Z,65.50
2022-08-17T05:31:21.068Z,65.90
2022-08-17T05:33:49.415Z,65.90
2022-08-17T05:36:42.300Z,65.80
2022-08-17T05:39:03.141Z,65.80
2022-08-17T05:41:29.796Z,65.90
2022-08-17T05:43:56.790Z,65.90
2022-08-17T05:46:32.767Z,65.80
2022-08-17T05:49:10.914Z,66.00
2022-08-17T05:51:56.188Z,65.90
2022-08-17T05:54:34.266Z,65.60
2022-08-17T05:57:06.660Z,65.50
2022-08-17T06:00:05.196Z,65.30
2022-08-17T06:02:48.105Z,65.20
2022-08-17T06:05:35.545Z,65.10
2022-08-17T06:08:39.968Z,65.30
2022-08-17T06:11:22.757Z,65.20
2022-08-17T06:14:24.767Z,65.20
2022-08-17T06:16:58.434Z,65.30
2022-08-17T06:19:33.335Z,65.10
2022-08-17T06:22:02.583Z,64.90
2022-08-17T06:24:38.626Z,64.70
2022-08-17T06:27:30.978Z,64.70
2022-08-17T06:30:15.231Z,64.50
2022-08-17T06:32:47.962Z,64.20
2022-08-17T06:35:19.184Z,64.40
2022-08-17T06:38:21.809Z,64.60
2022-08-17T06:41:19.763Z,64.80
2022-08-17T06:44:02.533Z,64.90
2022-08-17T06:46:39.969Z,65.00
2022-08-17T06:49:25.765Z,64.90
2022-08-17T06:52:07.911Z,65.20
2022-08-17T06:55:07.099Z,64.80
2022-08-17T06:57:38.888Z,64.60
2022-08-17T07:00:13.096Z,64.50
2022-08-17T07:03:07.601Z,64.70
2022-08-17T07:05:57.754Z,64.70
2022-08-17T07:08:35.038Z,64.90
2022-08-17T07:11:06.630Z,65.00
2022-08-17T07:14:04.674Z,64.70
2022-08-17T07:16:39.172Z,64.80
2022-08-17T07:19:07.276Z,64.90
2022-08-17T07:21:57.119Z,64.80
2022-08-17T07:24:37.176Z,64.80
2022-08-17T07:27:06.283Z,64.80
2022-08-17T07:29:57.600Z,64.80
2022-08-17T07:32:31.427Z,64.70
2022-08-17T07:35:37.712Z,64.90
2022-08-17T07:38:25.789Z,65.10
2022-08-17T07:41:05.065Z,65.00
2022-08-17T07:43:40.688Z,65.40
2022-08-17T07:46:49.963Z,66.00
2022-08-17T07:49:35.880Z,67.30
2022-08-17T07:52:50.313Z,66.30
2022-08-17T07:55:30.738Z,66.50
2022-08-17T07:57:58.966Z,66.80
2022-08-17T08:00:29.135Z,66.70
2022-08-17T08:03:03.123Z,66.50
2022-08-17T08:05:49.879Z,66.90
2022-08-17T08:08:42.616Z,66.80
2022-08-17T08:11:15.074Z,66.80
2022-08-17T08:13:43.753Z,66.50
2022-08-17T08:16:29.037Z,65.70
2022-08-17T08:18:59.576Z,64.70
2022-08-17T08:22:07.667Z,64.10
2022-08-17T08:24:40.476Z,63.40
2022-08-17T08:27:38.380Z,62.10
2022-08-17T08:30:17.139Z,61.70
2022-08-17T08:33:05.005Z,60.90
2022-08-17T08:35:33.607Z,61.00
2022-08-17T08:38:33.490Z,60.80
2022-08-17T08:41:36.791Z,59.20
2022-08-17T08:45:00.323Z,58.20
2022-08-17T08:47:20.342Z,57.80
2022-08-17T08:50:04.311Z,58.40
2022-08-17T08:52:49.654Z,58.50
2022-08-17T08:55:28.515Z,57.70
2022-08-17T08:58:07.634Z,58.10
2022-08-17T09:00:58.299Z,57.50
2022-08-17T09:04:21.524Z,56.80
2022-08-17T09:07:25.405Z,57.20
2022-08-17T09:09:59.662Z,57.40
2022-08-17T09:12:41.582Z,57.60
2022-08-17T09:15:32.023Z,57.30
2022-08-17T09:19:01.044Z,58.10
2022-08-17T09:21:33.839Z,58.00
2022-08-17T09:24:33.143Z,57.30
2022-08-17T09:27:08.123Z,56.90
2022-08-17T09:29:39.426Z,56.60
2022-08-17T09:32:28.363Z,56.40
2022-08-17T09:35:01.459Z,56.80
2022-08-17T09:37:42.924Z,56.90
2022-08-17T09:40:18.450Z,57.20
2022-08-17T09:43:14.106Z,57.00
2022-08-17T09:45:50.635Z,57.70
2022-08-17T09:48:29.292Z,58.60
2022-08-17T09:51:07.004Z,59.70
2022-08-17T09:53:36.909Z,60.70
2022-08-17T09:56:21.687Z,61.40
2022-08-17T09:59:17.049Z,61.60
2022-08-17T10:01:51.527Z,61.90
2022-08-17T10:04:23.753Z,62.00
2022-08-17T10:07:02.186Z,62.30
2022-08-17T10:09:39.696Z,62.40
2022-08-17T10:12:17.266Z,61.50
2022-08-17T10:15:38.060Z,60.60
2022-08-17T10:18:34.339Z,60.10
2022-08-17T10:21:27.020Z,59.50
2022-08-17T10:24:25.013Z,58.60
2022-08-17T10:26:56.481Z,56.80
2022-08-17T10:29:47.334Z,57.20
2022-08-17T10:32:45.983Z,57.80
2022-08-17T10:35:25.818Z,56.70
2022-08-17T10:38:04.870Z,55.80
2022-08-17T10:40:32.424Z,56.70
2022-08-17T10:43:29.783Z,57.30
2022-08-17T10:46:31.205Z,56.80
2022-08-17T10:49:21.512Z,56.50
2022-08-17T10:51:54.341Z,56.40
2022-08-17T10:54:40.536Z,55.50
2022-08-17T10:57:29.140Z,55.10
2022-08-17T10:59:57.340Z,54.70
2022-08-17T11:02:52.365Z,54.90
2022-08-17T11:05:50.275Z,54.70
2022-08-17T11:08:46.900Z,54.40
2022-08-17T11:11:23.192Z,55.00
2022-08-17T11:14:06.143Z,55.40
2022-08-17T11:16:53.289Z,55.90
2022-08-17T11:19:53.222Z,55.80
2022-08-17T11:22:57.926Z,56.10
2022-08-17T11:25:46.878Z,55.90
2022-08-17T11:28:34.332Z,55.40
2022-08-17T11:31:38.498Z,55.90
2022-08-17T11:34:26.213Z,56.30
2022-08-17T11:37:21.027Z,56.80
2022-08-17T11:40:06.609Z,57.40
2022-08-17T11:43:06.706Z,58.50
2022-08-17T11:46:03.296Z,59.50
2022-08-17T11:49:36.925Z,60.30
2022-08-17T11:52:04.874Z,61.00
2022-08-17T11:54:46.012Z,61.80
2022-08-17T11:57:27.849Z,62.10
2022-08-17T12:00:07.313Z,62.30
2022-08-17T12:02:38.697Z,62.50
2022-08-17T12:05:14.348Z,62.60
2022-08-17T12:08:00.605Z,62.80
2022-08-17T12:10:34.263Z,62.80
2022-08-17T12:13:12.963Z,62.90
2022-08-17T12:15:48.589Z,62.90
2022-08-17T12:18:35.546Z,63.50
2022-08-17T12:21:15.292Z,63.90
2022-08-17T12:24:06.452Z,64.20
2022-08-17T12:26:35.464Z,64.40
2022-08-17T12:29:18.448Z,64.80
2022-08-17T12:32:02.021Z,65.10
2022-08-17T12:34:50.463Z,64.90
2022-08-17T12:37:22.501Z,64.80
2022-08-17T12:40:16.658Z,65.30
2022-08-17T12:43:19.923Z,65.30
2022-08-17T12:45:58.060Z,65.80
2022-08-17T12:48:27.347Z,65.90
2022-08-17T12:51:01.432Z,66.10
2022-08-17T12:53:32.020Z,66.00
2022-08-17T12:56:00.943Z,65.80
2022-08-17T12:58:31.906Z,65.60
2022-08-17T13:01:13.574Z,65.30
2022-08-17T13:03:49.331Z,65.30
2022-08-17T13:06:35.234Z,64.70
2022-08-17T13:09:14.173Z,64.60
2022-08-17T13:11:56.196Z,64.60
2022-08-17T13:14:22.938Z,64.60
2022-08-17T13:16:53.388Z,64.60
2022-08-17T13:19:32.959Z,64.60
2022-08-17T13:22:10.735Z,64.40
2022-08-17T13:24:38.262Z,64.70
2022-08-17T13:27:09.521Z,64.70
2022-08-17T13:29:45.327Z,65.30
2022-08-17T13:32:33.452Z,65.70
2022-08-17T13:35:15.295Z,65.80
2022-08-17T13:38:01.367Z,66.20
2022-08-17T13:40:38.739Z,66.70
2022-08-17T13:43:05.597Z,67.10
2022-08-17T13:45:45.916Z,67.30
2022-08-17T13:48:27.168Z,67.40
2022-08-17T13:50:56.992Z,67.50
2022-08-17T13:53:40.156Z,67.60
2022-08-17T13:56:07.434Z,67.70
2022-08-17T13:59:00.080Z,67.50
2022-08-17T14:01:32.778Z,67.40
2022-08-17T14:04:02.982Z,67.50
2022-08-17T14:06:52.344Z,67.40
2022-08-17T14:09:26.544Z,67.50
2022-08-17T14:11:54.438Z,67.40
2022-08-17T14:14:23.007Z,67.40
2022-08-17T14:16:50.923Z,67.80
2022-08-17T14:19:17.984Z,67.50
2022-08-17T14:21:46.474Z,67.40
2022-08-17T14:24:24.100Z,67.40
2022-08-17T14:26:54.632Z,67.20
2022-08-17T14:29:22.954Z,66.80
2022-08-17T14:31:54.159Z,66.70
2022-08-17T14:34:25.186Z,66.50
2022-08-17T14:36:52.108Z,66.60
2022-08-17T14:39:20.335Z,66.10
2022-08-17T14:41:47.055Z,66.10
2022-08-17T14:44:13.752Z,66.00
2022-08-17T14:46:43.178Z,66.20
2022-08-17T14:49:12.275Z,66.20
2022-08-17T14:51:44.009Z,66.00
2022-08-17T14:54:11.654Z,66.20
2022-08-17T14:57:11.561Z,66.40
2022-08-17T14:59:45.047Z,66.50
2022-08-17T15:02:12.911Z,66.60
2022-08-17T15:04:44.890Z,67.00
2022-08-17T15:07:12.286Z,67.30
2022-08-17T15:09:39.090Z,67.10
2022-08-17T15:12:06.633Z,66.80
2022-08-17T15:14:35.332Z,66.80
2022-08-17T15:17:05.565Z,66.70
2022-08-17T15:19:32.261Z,66.50
2022-08-17T15:21:58.976Z,66.70
2022-08-17T15:24:25.659Z,66.70
2022-08-17T15:26:52.305Z,67.00
2022-08-17T15:29:18.988Z,67.30
2022-08-17T15:31:45.752Z,67.20
2022-08-17T15:34:12.407Z,67.30
2022-08-17T15:36:43.869Z,67.00
2022-08-17T15:39:19.655Z,67.10
2022-08-17T15:41:47.215Z,67.10
2022-08-17T15:44:30.228Z,67.40
2022-08-17T15:47:02.008Z,67.20
2022-08-17T15:49:28.678Z,67.10
2022-08-17T15:51:55.427Z,67.20
2022-08-17T15:54:23.536Z,66.90
2022-08-17T15:56:50.670Z,66.50
2022-08-17T15:59:17.336Z,66.00
2022-08-17T16:03:14.735Z,66.00
2022-08-17T16:04:31.906Z,65.70
2022-08-17T16:06:59.815Z,65.30
2022-08-17T16:09:27.035Z,64.80
2022-08-17T16:11:55.581Z,64.70
2022-08-17T16:14:24.376Z,64.30
2022-08-17T16:16:51.834Z,64.20
2022-08-17T16:19:18.620Z,64.00
2022-08-17T16:21:45.264Z,64.20
2022-08-17T16:24:12.709Z,64.40
2022-08-17T16:26:40.664Z,64.90
2022-08-17T16:29:08.249Z,64.80
2022-08-17T16:31:37.430Z,65.30
2022-08-17T16:34:17.799Z,65.80
2022-08-17T16:36:55.795Z,65.80
2022-08-17T16:39:27.637Z,65.70
2022-08-17T16:41:55.787Z,65.40
2022-08-17T16:44:22.651Z,65.40
2022-08-17T16:46:50.147Z,65.20
2022-08-17T16:49:36.039Z,65.30
2022-08-17T16:52:06.135Z,65.30
2022-08-17T16:54:33.383Z,65.00
2022-08-17T16:57:00.160Z,65.40
2022-08-17T16:59:30.840Z,65.30
2022-08-17T17:02:12.871Z,65.30
2022-08-17T17:04:56.365Z,65.40
2022-08-17T17:07:49.616Z,65.50
2022-08-17T17:10:21.082Z,65.50
2022-08-17T17:13:01.414Z,65.40
2022-08-17T17:15:54.912Z,65.60
2022-08-17T17:18:31.649Z,65.40
2022-08-17T17:20:58.598Z,65.50
2022-08-17T17:23:38.135Z,65.30
2022-08-17T17:26:28.049Z,65.40
2022-08-17T17:29:26.630Z,65.60
2022-08-17T17:32:09.409Z,66.00
2022-08-17T17:34:37.787Z,66.20
2022-08-17T17:37:11.412Z,66.10
2022-08-17T17:39:44.670Z,66.00
2022-08-17T17:42:19.970Z,66.30
2022-08-17T17:45:18.471Z,66.20
2022-08-17T17:47:45.745Z,66.60
2022-08-17T17:50:13.167Z,66.80
2022-08-17T17:53:02.050Z,67.00
2022-08-17T17:55:31.497Z,67.20
2022-08-17T17:58:28.270Z,67.20
2022-08-17T18:01:10.202Z,67.50
2022-08-17T18:04:08.302Z,67.70
2022-08-17T18:07:11.203Z,68.00
2022-08-17T18:10:02.680Z,68.30
2022-08-17T18:12:36.787Z,68.50
2022-08-17T18:15:24.861Z,68.70
2022-08-17T18:18:38.875Z,69.00
2022-08-17T18:21:21.257Z,69.10
2022-08-17T18:23:53.000Z,69.10
2022-08-17T18:26:56.738Z,69.10
2022-08-17T18:29:30.209Z,68.80
2022-08-17T18:32:36.947Z,68.60
2022-08-17T18:35:09.424Z,68.70
2022-08-17T18:37:51.677Z,68.60
2022-08-17T18:40:21.564Z,68.70
2022-08-17T18:43:11.208Z,68.70
2022-08-17T18:45:49.155Z,68.70
2022-08-17T18:48:32.972Z,68.60
2022-08-17T18:51:20.348Z,68.90
2022-08-17T18:54:16.368Z,69.10
2022-08-17T18:57:04.385Z,69.60
2022-08-17T18:59:48.135Z,70.00
2022-08-17T19:05:30.613Z,70.30
2022-08-17T19:08:18.471Z,70.40
2022-08-17T19:10:47.582Z,70.30
2022-08-17T19:13:46.890Z,70.00
2022-08-17T19:16:55.481Z,70.00
2022-08-17T19:19:26.616Z,69.90
2022-08-17T19:22:28.905Z,69.70
2022-08-17T19:25:09.533Z,69.90
2022-08-17T19:28:03.541Z,69.90
2022-08-17T19:30:30.851Z,70.10
2022-08-17T19:32:58.333Z,69.70
2022-08-17T19:35:34.026Z,70.00
2022-08-17T19:38:12.891Z,70.00
2022-08-17T19:40:54.524Z,69.80
2022-08-17T19:43:42.676Z,69.70
2022-08-17T19:46:25.920Z,69.60
2022-08-17T19:49:18.512Z,69.50
2022-08-17T19:51:56.958Z,69.30
2022-08-17T19:54:55.256Z,69.40
2022-08-17T19:58:00.815Z,69.40
2022-08-17T20:00:31.118Z,69.40
2022-08-17T20:03:22.086Z,69.40
2022-08-17T20:06:11.943Z,69.50
2022-08-17T20:09:33.414Z,69.60
2022-08-17T20:12:11.156Z,69.80
2022-08-17T20:14:53.601Z,70.00
2022-08-17T20:17:33.991Z,70.00
2022-08-17T20:20:35.895Z,69.80
2022-08-17T20:23:28.516Z,69.90
2022-08-17T20:26:23.284Z,70.10
2022-08-17T20:29:07.609Z,70.30
2022-08-17T20:31:42.380Z,70.40
2022-08-17T20:34:30.810Z,70.50
2022-08-17T20:37:24.656Z,70.90
2022-08-17T20:39:52.432Z,70.70
2022-08-17T20:42:21.926Z,70.70
2022-08-17T20:44:57.659Z,70.80
2022-08-17T20:48:07.787Z,71.00
2022-08-17T20:50:43.764Z,71.40
2022-08-17T20:53:13.444Z,71.30
2022-08-17T20:55:52.469Z,71.20
2022-08-17T20:58:30.110Z,70.90
2022-08-17T21:00:58.821Z,70.60
2022-08-17T21:03:28.557Z,70.60
2022-08-17T21:06:18.454Z,70.70
2022-08-17T21:09:19.274Z,70.80
2022-08-17T21:12:04.601Z,71.00
2022-08-17T21:14:34.287Z,71.10
2022-08-17T21:17:04.736Z,71.20
2022-08-17T21:20:07.715Z,71.10
2022-08-17T21:22:50.255Z,71.00
2022-08-17T21:25:41.523Z,71.10
2022-08-17T21:29:00.998Z,71.10
2022-08-17T21:31:35.050Z,70.80
2022-08-17T21:34:17.039Z,70.80
2022-08-17T21:36:45.684Z,70.90
2022-08-17T21:39:15.693Z,70.50
2022-08-17T21:41:52.810Z,70.40
2022-08-17T21:44:21.470Z,70.30
2022-08-17T21:46:50.954Z,70.30
2022-08-17T21:49:20.639Z,70.50
2022-08-17T21:51:50.420Z,70.80
2022-08-17T21:54:29.789Z,70.60
2022-08-17T21:56:58.580Z,70.50
2022-08-17T21:59:30.117Z,70.30
2022-08-17T22:02:02.542Z,70.30
2022-08-17T22:04:41.396Z,70.20
2022-08-17T22:07:13.445Z,70.30
2022-08-17T22:09:49.898Z,70.20
2022-08-17T22:12:21.780Z,70.30
2022-08-17T22:15:02.013Z,70.20
2022-08-17T22:17:35.448Z,70.20
2022-08-17T22:20:14.283Z,70.20
2022-08-17T22:23:08.469Z,70.20
2022-08-17T22:25:39.351Z,70.10
2022-08-17T22:28:11.513Z,69.90
2022-08-17T22:30:56.955Z,69.90
2022-08-17T22:33:34.889Z,69.80
2022-08-17T22:36:28.877Z,70.10
2022-08-17T22:39:00.868Z,70.20
2022-08-17T22:41:53.133Z,70.10
2022-08-17T22:44:35.475Z,70.30
2022-08-17T22:47:18.671Z,70.20
2022-08-17T22:49:59.212Z,70.00
2022-08-17T22:53:00.944Z,69.60
2022-08-17T22:55:48.872Z,69.60
2022-08-17T22:58:38.529Z,69.50
2022-08-17T23:01:28.300Z,69.80
2022-08-17T23:04:08.504Z,69.70
2022-08-17T23:06:36.942Z,69.60
2022-08-17T23:09:06.191Z,69.40
2022-08-17T23:11:48.615Z,69.60
2022-08-17T23:14:19.577Z,69.40
2022-08-17T23:16:47.463Z,69.30
2022-08-17T23:19:17.513Z,69.30
2022-08-17T23:21:45.009Z,69.30
2022-08-17T23:24:19.571Z,69.40
2022-08-17T23:26:46.290Z,69.70
2022-08-17T23:29:13.136Z,69.50
2022-08-17T23:31:40.387Z,69.70
2022-08-17T23:34:10.920Z,69.80
2022-08-17T23:36:38.128Z,70.00
2022-08-17T23:39:06.485Z,69.80
2022-08-17T23:41:36.262Z,69.80
2022-08-17T23:44:05.569Z,69.80
2022-08-17T23:46:32.666Z,69.80
2022-08-17T23:48:59.477Z,69.70
2022-08-17T23:51:44.039Z,69.70
2022-08-17T23:54:20.391Z,69.90
2022-08-17T23:56:47.128Z,69.90
2022-08-17T23:59:15.932Z,69.60
